Pawcatuck, Connecticut
Current Conditions -  °F | °C
As of 11:01 PM on Wednesday 26 Nov 2014 (Local Time) from KWST Reporting Station
Light Rain Light Rain  
Wind Chill: 26°   Ceiling: 2100
Heat Index: 36°   Visibility: 8mi
Dew Point: 33°   Wind: 17mph
Humidity: 89%   Direction: 340°NNW
Pressure: 29.64"   Gusts: 29mph
Location:  41.38°N, 71.84°W
Report Text: KWST 270401Z AUTO 34015G25KT 8SM -RA SCT014 BKN021 OVC028 02/01 A2964 RMK AO2 P0000 T00220006
Loading
Personal Weather Stations






























Interactive Weather Map New forecast layout! Learn more

10-Day Weather Forecast

Advertisements
Track Severe Weather on mobile